Wappingers Falls, New York
Current Conditions -  °F | °C
As of 8:53 PM on Sunday 23 Nov 2014 (Local Time) from KPOU Reporting Station
Few Clouds Few Clouds  
Wind Chill:   Ceiling: Unl
Heat Index:   Visibility: 10mi
Dew Point: -3°   Wind: 3mph
Humidity: 46%   Direction: 160°SSE
Pressure: 30.09"   Gusts: NA
Location:  41.6°N, 73.91°W
Report Text: KPOU 240153Z 16003KT 10SM FEW037 08/M03 A3009 RMK AO2 SLP188 T00831028
Loading
Personal Weather Stations






























Interactive Weather Map New forecast layout! Learn more

10-Day Weather Forecast

Advertisements
Track Severe Weather on mobile